sensor_id;sensor_type;location;lat;lon;timestamp;P1;durP1;ratioP1;P2;durP2;ratioP2
7529;SDS011;3806;52.270;10.544;2023-11-21T00:02:14;8.95;;;4.10;;
7529;SDS011;3806;52.270;10.544;2023-11-21T00:04:40;9.18;;;4.15;;
7529;SDS011;3806;52.270;10.544;2023-11-21T00:07:05;6.63;;;3.47;;
7529;SDS011;3806;52.270;10.544;2023-11-21T00:09:31;12.80;;;3.85;;
7529;SDS011;3806;52.270;10.544;2023-11-21T00:11:57;10.32;;;3.75;;
7529;SDS011;3806;52.270;10.544;2023-11-21T00:14:24;9.00;;;3.70;;
7529;SDS011;3806;52.270;10.544;2023-11-21T00:16:50;6.78;;;3.83;;
7529;SDS011;3806;52.270;10.544;2023-11-21T00:19:15;8.55;;;4.45;;
7529;SDS011;3806;52.270;10.544;2023-11-21T00:21:41;9.35;;;4.00;;
7529;SDS011;3806;52.270;10.544;2023-11-21T00:24:09;10.90;;;4.00;;
7529;SDS011;3806;52.270;10.544;2023-11-21T00:26:35;7.82;;;4.20;;
7529;SDS011;3806;52.270;10.544;2023-11-21T00:29:02;14.02;;;5.25;;
7529;SDS011;3806;52.270;10.544;2023-11-21T00:31:28;9.35;;;4.40;;
7529;SDS011;3806;52.270;10.544;2023-11-21T00:33:55;13.70;;;5.22;;
7529;SDS011;3806;52.270;10.544;2023-11-21T00:36:21;13.77;;;4.50;;
7529;SDS011;3806;52.270;10.544;2023-11-21T00:38:46;7.20;;;4.28;;
7529;SDS011;3806;52.270;10.544;2023-11-21T00:41:13;9.80;;;4.45;;
7529;SDS011;3806;52.270;10.544;2023-11-21T00:43:38;8.02;;;4.80;;
7529;SDS011;3806;52.270;10.544;2023-11-21T00:46:04;9.50;;;4.25;;
7529;SDS011;3806;52.270;10.544;2023-11-21T00:48:32;8.15;;;4.47;;
7529;SDS011;3806;52.270;10.544;2023-11-21T00:50:58;8.82;;;4.28;;
7529;SDS011;3806;52.270;10.544;2023-11-21T00:53:23;9.35;;;3.90;;
7529;SDS011;3806;52.270;10.544;2023-11-21T00:55:49;9.32;;;4.30;;
7529;SDS011;3806;52.270;10.544;2023-11-21T00:58:14;10.05;;;3.95;;
7529;SDS011;3806;52.270;10.544;2023-11-21T01:00:40;13.18;;;4.82;;
7529;SDS011;3806;52.270;10.544;2023-11-21T01:03:06;11.77;;;4.53;;
7529;SDS011;3806;52.270;10.544;2023-11-21T01:05:32;15.18;;;5.75;;
7529;SDS011;3806;52.270;10.544;2023-11-21T01:07:59;9.82;;;4.35;;
7529;SDS011;3806;52.270;10.544;2023-11-21T01:10:25;10.52;;;4.85;;
7529;SDS011;3806;52.270;10.544;2023-11-21T01:12:50;11.43;;;4.60;;
7529;SDS011;3806;52.270;10.544;2023-11-21T01:15:16;14.65;;;5.15;;
7529;SDS011;3806;52.270;10.544;2023-11-21T01:17:41;8.43;;;4.13;;
7529;SDS011;3806;52.270;10.544;2023-11-21T01:20:07;11.00;;;5.00;;
7529;SDS011;3806;52.270;10.544;2023-11-21T01:22:37;12.18;;;4.80;;
7529;SDS011;3806;52.270;10.544;2023-11-21T01:25:03;11.65;;;4.82;;
7529;SDS011;3806;52.270;10.544;2023-11-21T01:27:31;10.68;;;5.78;;
7529;SDS011;3806;52.270;10.544;2023-11-21T01:29:56;11.88;;;5.53;;
7529;SDS011;3806;52.270;10.544;2023-11-21T01:32:22;8.50;;;4.47;;
7529;SDS011;3806;52.270;10.544;2023-11-21T01:34:49;13.35;;;5.53;;
7529;SDS011;3806;52.270;10.544;2023-11-21T01:37:15;11.15;;;5.28;;
7529;SDS011;3806;52.270;10.544;2023-11-21T01:39:42;12.43;;;4.85;;
7529;SDS011;3806;52.270;10.544;2023-11-21T01:42:09;11.27;;;4.97;;
7529;SDS011;3806;52.270;10.544;2023-11-21T01:44:36;7.75;;;4.88;;
7529;SDS011;3806;52.270;10.544;2023-11-21T01:47:01;9.30;;;5.78;;
7529;SDS011;3806;52.270;10.544;2023-11-21T01:49:29;9.77;;;5.43;;
7529;SDS011;3806;52.270;10.544;2023-11-21T01:51:58;8.63;;;4.00;;
7529;SDS011;3806;52.270;10.544;2023-11-21T01:54:24;11.38;;;4.90;;
7529;SDS011;3806;52.270;10.544;2023-11-21T01:56:51;12.07;;;4.65;;
7529;SDS011;3806;52.270;10.544;2023-11-21T01:59:19;17.20;;;5.57;;
7529;SDS011;3806;52.270;10.544;2023-11-21T02:01:46;9.43;;;5.20;;
7529;SDS011;3806;52.270;10.544;2023-11-21T02:04:12;10.95;;;5.88;;
7529;SDS011;3806;52.270;10.544;2023-11-21T02:06:38;12.73;;;6.00;;
7529;SDS011;3806;52.270;10.544;2023-11-21T02:09:04;13.20;;;6.18;;
7529;SDS011;3806;52.270;10.544;2023-11-21T02:11:30;16.27;;;6.03;;
7529;SDS011;3806;52.270;10.544;2023-11-21T02:13:56;12.50;;;6.10;;
7529;SDS011;3806;52.270;10.544;2023-11-21T02:16:24;14.15;;;6.35;;
7529;SDS011;3806;52.270;10.544;2023-11-21T02:18:50;21.85;;;7.85;;
7529;SDS011;3806;52.270;10.544;2023-11-21T02:21:17;9.43;;;5.40;;
7529;SDS011;3806;52.270;10.544;2023-11-21T02:23:44;9.93;;;6.28;;
7529;SDS011;3806;52.270;10.544;2023-11-21T02:26:11;12.73;;;5.47;;
7529;SDS011;3806;52.270;10.544;2023-11-21T02:28:37;12.50;;;5.70;;
7529;SDS011;3806;52.270;10.544;2023-11-21T02:31:04;15.07;;;6.20;;
7529;SDS011;3806;52.270;10.544;2023-11-21T02:33:30;10.63;;;6.32;;
7529;SDS011;3806;52.270;10.544;2023-11-21T02:35:58;13.68;;;6.22;;
7529;SDS011;3806;52.270;10.544;2023-11-21T02:38:27;15.63;;;6.18;;
7529;SDS011;3806;52.270;10.544;2023-11-21T02:40:53;15.85;;;6.00;;
7529;SDS011;3806;52.270;10.544;2023-11-21T02:43:18;11.95;;;5.80;;
7529;SDS011;3806;52.270;10.544;2023-11-21T02:45:44;16.40;;;7.07;;
7529;SDS011;3806;52.270;10.544;2023-11-21T02:48:09;12.05;;;6.72;;
7529;SDS011;3806;52.270;10.544;2023-11-21T02:50:35;11.52;;;5.82;;
7529;SDS011;3806;52.270;10.544;2023-11-21T02:53:01;12.10;;;6.03;;
7529;SDS011;3806;52.270;10.544;2023-11-21T02:55:27;12.40;;;6.78;;
7529;SDS011;3806;52.270;10.544;2023-11-21T02:57:53;15.55;;;6.88;;
7529;SDS011;3806;52.270;10.544;2023-11-21T03:00:21;10.35;;;6.05;;
7529;SDS011;3806;52.270;10.544;2023-11-21T03:02:49;12.02;;;6.60;;
7529;SDS011;3806;52.270;10.544;2023-11-21T03:05:14;12.02;;;6.55;;
7529;SDS011;3806;52.270;10.544;2023-11-21T03:07:40;14.38;;;6.40;;
7529;SDS011;3806;52.270;10.544;2023-11-21T03:10:06;15.93;;;7.32;;
7529;SDS011;3806;52.270;10.544;2023-11-21T03:12:34;14.32;;;6.80;;
7529;SDS011;3806;52.270;10.544;2023-11-21T03:14:59;12.55;;;6.30;;
7529;SDS011;3806;52.270;10.544;2023-11-21T03:17:26;14.43;;;6.68;;
7529;SDS011;3806;52.270;10.544;2023-11-21T03:19:53;12.43;;;6.00;;
7529;SDS011;3806;52.270;10.544;2023-11-21T03:22:19;12.88;;;6.85;;
7529;SDS011;3806;52.270;10.544;2023-11-21T03:24:45;14.27;;;7.47;;
7529;SDS011;3806;52.270;10.544;2023-11-21T03:27:10;10.93;;;6.20;;
7529;SDS011;3806;52.270;10.544;2023-11-21T03:29:37;12.73;;;7.15;;
7529;SDS011;3806;52.270;10.544;2023-11-21T03:32:02;18.15;;;7.35;;
7529;SDS011;3806;52.270;10.544;2023-11-21T03:34:28;15.63;;;7.28;;
7529;SDS011;3806;52.270;10.544;2023-11-21T03:36:54;16.85;;;6.95;;
7529;SDS011;3806;52.270;10.544;2023-11-21T03:39:20;20.13;;;8.65;;
7529;SDS011;3806;52.270;10.544;2023-11-21T03:41:46;16.30;;;6.85;;
7529;SDS011;3806;52.270;10.544;2023-11-21T03:44:12;20.25;;;8.20;;
7529;SDS011;3806;52.270;10.544;2023-11-21T03:46:38;18.02;;;7.90;;
7529;SDS011;3806;52.270;10.544;2023-11-21T03:49:03;14.90;;;7.70;;
7529;SDS011;3806;52.270;10.544;2023-11-21T03:51:29;18.98;;;7.32;;
7529;SDS011;3806;52.270;10.544;2023-11-21T03:53:54;14.35;;;6.93;;
7529;SDS011;3806;52.270;10.544;2023-11-21T03:56:20;14.65;;;7.10;;
7529;SDS011;3806;52.270;10.544;2023-11-21T03:58:47;14.23;;;7.55;;
7529;SDS011;3806;52.270;10.544;2023-11-21T04:01:18;17.00;;;7.18;;
7529;SDS011;3806;52.270;10.544;2023-11-21T04:03:46;14.10;;;7.85;;
7529;SDS011;3806;52.270;10.544;2023-11-21T04:06:12;17.13;;;7.20;;
7529;SDS011;3806;52.270;10.544;2023-11-21T04:08:37;19.63;;;7.78;;
7529;SDS011;3806;52.270;10.544;2023-11-21T04:11:03;19.08;;;7.88;;
7529;SDS011;3806;52.270;10.544;2023-11-21T04:13:29;14.75;;;7.85;;
7529;SDS011;3806;52.270;10.544;2023-11-21T04:15:55;17.55;;;7.72;;
7529;SDS011;3806;52.270;10.544;2023-11-21T04:18:21;19.27;;;7.60;;
7529;SDS011;3806;52.270;10.544;2023-11-21T04:20:48;13.98;;;7.35;;
7529;SDS011;3806;52.270;10.544;2023-11-21T04:23:13;14.55;;;7.43;;
7529;SDS011;3806;52.270;10.544;2023-11-21T04:25:40;15.02;;;7.63;;
7529;SDS011;3806;52.270;10.544;2023-11-21T04:28:05;15.70;;;7.95;;
7529;SDS011;3806;52.270;10.544;2023-11-21T04:30:31;14.80;;;7.30;;
7529;SDS011;3806;52.270;10.544;2023-11-21T04:32:57;20.23;;;8.13;;
7529;SDS011;3806;52.270;10.544;2023-11-21T04:35:23;21.48;;;8.85;;
7529;SDS011;3806;52.270;10.544;2023-11-21T04:37:48;13.70;;;7.45;;
7529;SDS011;3806;52.270;10.544;2023-11-21T04:40:16;16.60;;;7.43;;
7529;SDS011;3806;52.270;10.544;2023-11-21T04:42:41;16.40;;;7.97;;
7529;SDS011;3806;52.270;10.544;2023-11-21T04:45:07;17.88;;;8.18;;
7529;SDS011;3806;52.270;10.544;2023-11-21T04:47:36;15.65;;;7.75;;
7529;SDS011;3806;52.270;10.544;2023-11-21T04:50:02;16.48;;;7.90;;
7529;SDS011;3806;52.270;10.544;2023-11-21T04:52:29;20.08;;;8.55;;
7529;SDS011;3806;52.270;10.544;2023-11-21T04:54:54;15.27;;;7.80;;
7529;SDS011;3806;52.270;10.544;2023-11-21T04:57:22;19.52;;;7.85;;
7529;SDS011;3806;52.270;10.544;2023-11-21T04:59:50;20.30;;;8.18;;
7529;SDS011;3806;52.270;10.544;2023-11-21T05:02:16;18.95;;;8.40;;
7529;SDS011;3806;52.270;10.544;2023-11-21T05:04:43;17.02;;;7.95;;
7529;SDS011;3806;52.270;10.544;2023-11-21T05:07:08;16.88;;;8.95;;
7529;SDS011;3806;52.270;10.544;2023-11-21T05:09:34;20.17;;;8.48;;
7529;SDS011;3806;52.270;10.544;2023-11-21T05:12:00;19.42;;;8.45;;
7529;SDS011;3806;52.270;10.544;2023-11-21T05:14:26;20.52;;;8.68;;
7529;SDS011;3806;52.270;10.544;2023-11-21T05:16:52;21.13;;;8.38;;
7529;SDS011;3806;52.270;10.544;2023-11-21T05:19:17;17.60;;;8.80;;
7529;SDS011;3806;52.270;10.544;2023-11-21T05:21:43;20.73;;;9.48;;
7529;SDS011;3806;52.270;10.544;2023-11-21T05:24:08;20.25;;;8.48;;
7529;SDS011;3806;52.270;10.544;2023-11-21T05:26:34;19.23;;;9.48;;
7529;SDS011;3806;52.270;10.544;2023-11-21T05:29:00;19.65;;;8.73;;
7529;SDS011;3806;52.270;10.544;2023-11-21T05:31:25;20.58;;;9.30;;
7529;SDS011;3806;52.270;10.544;2023-11-21T05:33:52;15.05;;;8.10;;
7529;SDS011;3806;52.270;10.544;2023-11-21T05:36:18;16.20;;;8.25;;
7529;SDS011;3806;52.270;10.544;2023-11-21T05:38:43;17.05;;;7.75;;
7529;SDS011;3806;52.270;10.544;2023-11-21T05:41:09;20.00;;;8.18;;
7529;SDS011;3806;52.270;10.544;2023-11-21T05:43:38;13.85;;;7.85;;
7529;SDS011;3806;52.270;10.544;2023-11-21T05:46:04;14.52;;;7.70;;
7529;SDS011;3806;52.270;10.544;2023-11-21T05:48:30;16.00;;;8.88;;
7529;SDS011;3806;52.270;10.544;2023-11-21T05:50:56;15.77;;;8.75;;
7529;SDS011;3806;52.270;10.544;2023-11-21T05:53:21;18.52;;;8.88;;
7529;SDS011;3806;52.270;10.544;2023-11-21T05:55:47;18.10;;;9.05;;
7529;SDS011;3806;52.270;10.544;2023-11-21T05:58:12;19.38;;;8.40;;
7529;SDS011;3806;52.270;10.544;2023-11-21T06:00:38;15.65;;;8.40;;
7529;SDS011;3806;52.270;10.544;2023-11-21T06:03:04;15.65;;;6.95;;
7529;SDS011;3806;52.270;10.544;2023-11-21T06:05:31;13.63;;;7.60;;
7529;SDS011;3806;52.270;10.544;2023-11-21T06:07:58;10.80;;;6.50;;
7529;SDS011;3806;52.270;10.544;2023-11-21T06:10:25;11.13;;;6.40;;
7529;SDS011;3806;52.270;10.544;2023-11-21T06:12:51;13.93;;;7.18;;
7529;SDS011;3806;52.270;10.544;2023-11-21T06:15:18;10.43;;;6.05;;
7529;SDS011;3806;52.270;10.544;2023-11-21T06:17:48;9.98;;;4.93;;
7529;SDS011;3806;52.270;10.544;2023-11-21T06:20:19;7.68;;;4.03;;
7529;SDS011;3806;52.270;10.544;2023-11-21T06:22:46;9.38;;;3.58;;
7529;SDS011;3806;52.270;10.544;2023-11-21T06:25:13;4.65;;;2.58;;
7529;SDS011;3806;52.270;10.544;2023-11-21T06:27:40;3.63;;;2.13;;
7529;SDS011;3806;52.270;10.544;2023-11-21T06:30:07;3.00;;;2.03;;
7529;SDS011;3806;52.270;10.544;2023-11-21T06:32:34;3.28;;;1.60;;
7529;SDS011;3806;52.270;10.544;2023-11-21T06:35:01;2.88;;;1.55;;
7529;SDS011;3806;52.270;10.544;2023-11-21T06:37:30;3.45;;;1.83;;
7529;SDS011;3806;52.270;10.544;2023-11-21T06:39:57;2.13;;;1.25;;
7529;SDS011;3806;52.270;10.544;2023-11-21T06:42:23;2.92;;;1.92;;
7529;SDS011;3806;52.270;10.544;2023-11-21T06:44:49;2.67;;;1.40;;
7529;SDS011;3806;52.270;10.544;2023-11-21T06:47:16;3.92;;;1.92;;
7529;SDS011;3806;52.270;10.544;2023-11-21T06:49:42;3.17;;;2.08;;
7529;SDS011;3806;52.270;10.544;2023-11-21T06:52:08;4.60;;;2.45;;
7529;SDS011;3806;52.270;10.544;2023-11-21T06:54:33;6.55;;;2.85;;
7529;SDS011;3806;52.270;10.544;2023-11-21T06:56:59;5.10;;;2.72;;
7529;SDS011;3806;52.270;10.544;2023-11-21T06:59:25;5.88;;;3.20;;
7529;SDS011;3806;52.270;10.544;2023-11-21T07:01:51;6.78;;;3.72;;
7529;SDS011;3806;52.270;10.544;2023-11-21T07:04:16;7.45;;;4.00;;
7529;SDS011;3806;52.270;10.544;2023-11-21T07:06:43;6.50;;;3.67;;
7529;SDS011;3806;52.270;10.544;2023-11-21T07:09:09;7.78;;;4.57;;
7529;SDS011;3806;52.270;10.544;2023-11-21T07:11:36;9.15;;;4.32;;
7529;SDS011;3806;52.270;10.544;2023-11-21T07:14:03;9.00;;;4.32;;
7529;SDS011;3806;52.270;10.544;2023-11-21T07:16:32;7.03;;;3.97;;
7529;SDS011;3806;52.270;10.544;2023-11-21T07:19:03;10.48;;;5.43;;
7529;SDS011;3806;52.270;10.544;2023-11-21T07:21:31;11.35;;;4.47;;
7529;SDS011;3806;52.270;10.544;2023-11-21T07:23:57;8.75;;;5.30;;
7529;SDS011;3806;52.270;10.544;2023-11-21T07:26:23;10.80;;;6.07;;
7529;SDS011;3806;52.270;10.544;2023-11-21T07:28:50;8.82;;;5.75;;
7529;SDS011;3806;52.270;10.544;2023-11-21T07:31:16;11.23;;;4.93;;
7529;SDS011;3806;52.270;10.544;2023-11-21T07:33:41;9.35;;;4.93;;
7529;SDS011;3806;52.270;10.544;2023-11-21T07:36:07;10.10;;;5.38;;
7529;SDS011;3806;52.270;10.544;2023-11-21T07:38:33;12.60;;;5.90;;
7529;SDS011;3806;52.270;10.544;2023-11-21T07:40:59;9.75;;;4.97;;
7529;SDS011;3806;52.270;10.544;2023-11-21T07:43:26;10.05;;;5.50;;
7529;SDS011;3806;52.270;10.544;2023-11-21T07:45:52;8.98;;;5.18;;
7529;SDS011;3806;52.270;10.544;2023-11-21T07:48:17;10.18;;;5.15;;
7529;SDS011;3806;52.270;10.544;2023-11-21T07:50:43;6.78;;;3.92;;
7529;SDS011;3806;52.270;10.544;2023-11-21T07:53:08;8.13;;;4.03;;
7529;SDS011;3806;52.270;10.544;2023-11-21T07:55:34;7.90;;;4.75;;
7529;SDS011;3806;52.270;10.544;2023-11-21T07:58:01;8.57;;;4.43;;
7529;SDS011;3806;52.270;10.544;2023-11-21T08:00:26;9.23;;;4.63;;
7529;SDS011;3806;52.270;10.544;2023-11-21T08:02:55;10.60;;;4.68;;
7529;SDS011;3806;52.270;10.544;2023-11-21T08:05:20;11.52;;;6.28;;
7529;SDS011;3806;52.270;10.544;2023-11-21T08:07:46;8.60;;;5.10;;
7529;SDS011;3806;52.270;10.544;2023-11-21T08:10:12;9.15;;;5.38;;
7529;SDS011;3806;52.270;10.544;2023-11-21T08:12:37;12.18;;;5.70;;
7529;SDS011;3806;52.270;10.544;2023-11-21T08:15:03;9.30;;;5.15;;
7529;SDS011;3806;52.270;10.544;2023-11-21T08:17:30;9.43;;;4.93;;
7529;SDS011;3806;52.270;10.544;2023-11-21T08:19:57;9.10;;;5.47;;
7529;SDS011;3806;52.270;10.544;2023-11-21T08:22:23;14.50;;;5.57;;
7529;SDS011;3806;52.270;10.544;2023-11-21T08:24:49;9.07;;;5.50;;
7529;SDS011;3806;52.270;10.544;2023-11-21T08:27:15;10.27;;;4.70;;
7529;SDS011;3806;52.270;10.544;2023-11-21T08:29:41;10.15;;;4.93;;
7529;SDS011;3806;52.270;10.544;2023-11-21T08:32:08;8.35;;;4.03;;
7529;SDS011;3806;52.270;10.544;2023-11-21T08:34:34;11.02;;;5.93;;
7529;SDS011;3806;52.270;10.544;2023-11-21T08:36:59;14.70;;;5.65;;
7529;SDS011;3806;52.270;10.544;2023-11-21T08:39:25;10.63;;;5.68;;
7529;SDS011;3806;52.270;10.544;2023-11-21T08:41:51;11.55;;;5.07;;
7529;SDS011;3806;52.270;10.544;2023-11-21T08:44:17;12.55;;;6.22;;
7529;SDS011;3806;52.270;10.544;2023-11-21T08:46:46;8.75;;;5.43;;
7529;SDS011;3806;52.270;10.544;2023-11-21T08:49:12;10.25;;;5.40;;
7529;SDS011;3806;52.270;10.544;2023-11-21T08:51:38;7.55;;;4.35;;
7529;SDS011;3806;52.270;10.544;2023-11-21T08:54:04;6.43;;;4.38;;
7529;SDS011;3806;52.270;10.544;2023-11-21T08:56:32;7.53;;;4.72;;
7529;SDS011;3806;52.270;10.544;2023-11-21T08:58:58;7.40;;;4.03;;
7529;SDS011;3806;52.270;10.544;2023-11-21T09:01:27;5.95;;;3.42;;
7529;SDS011;3806;52.270;10.544;2023-11-21T09:03:53;7.40;;;4.72;;
7529;SDS011;3806;52.270;10.544;2023-11-21T09:06:18;6.88;;;4.47;;
7529;SDS011;3806;52.270;10.544;2023-11-21T09:08:44;8.40;;;3.65;;
7529;SDS011;3806;52.270;10.544;2023-11-21T09:11:09;6.75;;;3.75;;
7529;SDS011;3806;52.270;10.544;2023-11-21T09:13:35;5.88;;;3.17;;
7529;SDS011;3806;52.270;10.544;2023-11-21T09:16:01;6.93;;;3.50;;
7529;SDS011;3806;52.270;10.544;2023-11-21T09:18:27;5.75;;;3.08;;
7529;SDS011;3806;52.270;10.544;2023-11-21T09:20:52;7.57;;;3.10;;
7529;SDS011;3806;52.270;10.544;2023-11-21T09:23:18;4.90;;;3.35;;
7529;SDS011;3806;52.270;10.544;2023-11-21T09:25:43;5.90;;;2.83;;
7529;SDS011;3806;52.270;10.544;2023-11-21T09:28:11;4.47;;;3.22;;
7529;SDS011;3806;52.270;10.544;2023-11-21T09:30:37;7.05;;;3.03;;
7529;SDS011;3806;52.270;10.544;2023-11-21T09:33:03;5.68;;;3.33;;
7529;SDS011;3806;52.270;10.544;2023-11-21T09:35:32;5.22;;;3.28;;
7529;SDS011;3806;52.270;10.544;2023-11-21T09:37:58;4.78;;;3.22;;
7529;SDS011;3806;52.270;10.544;2023-11-21T09:40:26;5.80;;;2.90;;
7529;SDS011;3806;52.270;10.544;2023-11-21T09:42:55;4.22;;;2.80;;
7529;SDS011;3806;52.270;10.544;2023-11-21T09:45:28;3.92;;;2.97;;
7529;SDS011;3806;52.270;10.544;2023-11-21T09:47:56;4.97;;;3.33;;
7529;SDS011;3806;52.270;10.544;2023-11-21T09:50:22;5.75;;;3.13;;
7529;SDS011;3806;52.270;10.544;2023-11-21T09:52:54;4.70;;;2.95;;
7529;SDS011;3806;52.270;10.544;2023-11-21T09:55:22;6.75;;;2.90;;
7529;SDS011;3806;52.270;10.544;2023-11-21T09:57:51;5.35;;;3.05;;
7529;SDS011;3806;52.270;10.544;2023-11-21T10:00:18;4.60;;;3.08;;
7529;SDS011;3806;52.270;10.544;2023-11-21T10:02:45;5.20;;;3.60;;
7529;SDS011;3806;52.270;10.544;2023-11-21T10:05:14;6.30;;;3.40;;
7529;SDS011;3806;52.270;10.544;2023-11-21T10:07:42;5.82;;;3.50;;
7529;SDS011;3806;52.270;10.544;2023-11-21T10:10:09;5.63;;;3.08;;
7529;SDS011;3806;52.270;10.544;2023-11-21T10:12:35;5.97;;;3.35;;
7529;SDS011;3806;52.270;10.544;2023-11-21T10:15:03;6.03;;;3.45;;
7529;SDS011;3806;52.270;10.544;2023-11-21T10:17:32;5.70;;;3.42;;
7529;SDS011;3806;52.270;10.544;2023-11-21T10:20:08;9.45;;;3.53;;
7529;SDS011;3806;52.270;10.544;2023-11-21T10:22:38;6.00;;;3.40;;
7529;SDS011;3806;52.270;10.544;2023-11-21T10:25:07;6.15;;;3.30;;
7529;SDS011;3806;52.270;10.544;2023-11-21T10:27:35;4.97;;;2.88;;
7529;SDS011;3806;52.270;10.544;2023-11-21T10:30:04;4.95;;;3.35;;
7529;SDS011;3806;52.270;10.544;2023-11-21T10:32:38;5.85;;;3.83;;
7529;SDS011;3806;52.270;10.544;2023-11-21T10:35:05;4.68;;;2.92;;
7529;SDS011;3806;52.270;10.544;2023-11-21T10:37:34;6.97;;;3.83;;
7529;SDS011;3806;52.270;10.544;2023-11-21T10:40:05;6.80;;;3.97;;
7529;SDS011;3806;52.270;10.544;2023-11-21T10:42:37;4.55;;;3.28;;
7529;SDS011;3806;52.270;10.544;2023-11-21T10:45:04;5.00;;;3.40;;
7529;SDS011;3806;52.270;10.544;2023-11-21T10:47:36;5.55;;;3.47;;
7529;SDS011;3806;52.270;10.544;2023-11-21T10:50:04;4.55;;;3.08;;
7529;SDS011;3806;52.270;10.544;2023-11-21T10:52:30;4.32;;;3.28;;
7529;SDS011;3806;52.270;10.544;2023-11-21T10:54:55;7.72;;;3.85;;
7529;SDS011;3806;52.270;10.544;2023-11-21T10:57:24;6.78;;;3.40;;
7529;SDS011;3806;52.270;10.544;2023-11-21T10:59:50;4.50;;;3.30;;
7529;SDS011;3806;52.270;10.544;2023-11-21T11:02:25;6.75;;;3.72;;
7529;SDS011;3806;52.270;10.544;2023-11-21T11:04:53;4.65;;;3.05;;
7529;SDS011;3806;52.270;10.544;2023-11-21T11:07:20;7.30;;;4.28;;
7529;SDS011;3806;52.270;10.544;2023-11-21T11:09:51;7.05;;;3.60;;
7529;SDS011;3806;52.270;10.544;2023-11-21T11:12:20;5.57;;;3.40;;
7529;SDS011;3806;52.270;10.544;2023-11-21T11:14:47;5.35;;;3.47;;
7529;SDS011;3806;52.270;10.544;2023-11-21T11:17:14;5.00;;;3.40;;
7529;SDS011;3806;52.270;10.544;2023-11-21T11:19:39;4.97;;;3.25;;
7529;SDS011;3806;52.270;10.544;2023-11-21T11:27:54;7.57;;;3.47;;
7529;SDS011;3806;52.270;10.544;2023-11-21T11:36:13;4.88;;;3.13;;
7529;SDS011;3806;52.270;10.544;2023-11-21T11:38:51;5.93;;;3.63;;
7529;SDS011;3806;52.270;10.544;2023-11-21T11:41:24;5.25;;;3.40;;
7529;SDS011;3806;52.270;10.544;2023-11-21T11:43:57;5.80;;;3.35;;
7529;SDS011;3806;52.270;10.544;2023-11-21T11:46:42;5.85;;;3.35;;
7529;SDS011;3806;52.270;10.544;2023-11-21T11:49:11;6.15;;;3.30;;
7529;SDS011;3806;52.270;10.544;2023-11-21T11:52:26;5.18;;;2.95;;
7529;SDS011;3806;52.270;10.544;2023-11-21T11:54:54;5.00;;;2.80;;
7529;SDS011;3806;52.270;10.544;2023-11-21T11:57:23;6.65;;;3.42;;
7529;SDS011;3806;52.270;10.544;2023-11-21T12:02:41;4.68;;;3.17;;
7529;SDS011;3806;52.270;10.544;2023-11-21T12:05:09;9.07;;;3.17;;
7529;SDS011;3806;52.270;10.544;2023-11-21T12:07:48;5.57;;;3.03;;
7529;SDS011;3806;52.270;10.544;2023-11-21T12:10:26;6.95;;;2.83;;
7529;SDS011;3806;52.270;10.544;2023-11-21T12:12:54;4.63;;;3.30;;
7529;SDS011;3806;52.270;10.544;2023-11-21T12:15:21;6.90;;;3.00;;
7529;SDS011;3806;52.270;10.544;2023-11-21T12:17:48;7.72;;;3.20;;
7529;SDS011;3806;52.270;10.544;2023-11-21T12:20:15;5.53;;;3.10;;
7529;SDS011;3806;52.270;10.544;2023-11-21T12:22:46;6.00;;;2.72;;
7529;SDS011;3806;52.270;10.544;2023-11-21T12:25:20;4.20;;;2.63;;
7529;SDS011;3806;52.270;10.544;2023-11-21T12:27:49;3.92;;;2.47;;
7529;SDS011;3806;52.270;10.544;2023-11-21T12:30:18;4.70;;;2.90;;
7529;SDS011;3806;52.270;10.544;2023-11-21T12:32:50;5.82;;;2.75;;
7529;SDS011;3806;52.270;10.544;2023-11-21T12:35:17;5.82;;;3.20;;
7529;SDS011;3806;52.270;10.544;2023-11-21T12:37:47;5.38;;;3.05;;
7529;SDS011;3806;52.270;10.544;2023-11-21T12:40:14;5.03;;;2.72;;
7529;SDS011;3806;52.270;10.544;2023-11-21T12:42:40;4.10;;;2.35;;
7529;SDS011;3806;52.270;10.544;2023-11-21T12:45:07;4.32;;;3.03;;
7529;SDS011;3806;52.270;10.544;2023-11-21T12:47:34;4.88;;;2.33;;
7529;SDS011;3806;52.270;10.544;2023-11-21T12:50:01;3.72;;;2.13;;
7529;SDS011;3806;52.270;10.544;2023-11-21T12:52:28;5.25;;;2.78;;
7529;SDS011;3806;52.270;10.544;2023-11-21T12:54:53;5.18;;;2.53;;
7529;SDS011;3806;52.270;10.544;2023-11-21T12:57:21;3.65;;;2.33;;
7529;SDS011;3806;52.270;10.544;2023-11-21T12:59:56;7.28;;;2.25;;
7529;SDS011;3806;52.270;10.544;2023-11-21T13:02:25;4.85;;;2.90;;
7529;SDS011;3806;52.270;10.544;2023-11-21T13:04:52;3.72;;;2.50;;
7529;SDS011;3806;52.270;10.544;2023-11-21T13:07:18;2.92;;;2.22;;
7529;SDS011;3806;52.270;10.544;2023-11-21T13:09:45;5.68;;;2.65;;
7529;SDS011;3806;52.270;10.544;2023-11-21T13:12:10;5.72;;;2.10;;
7529;SDS011;3806;52.270;10.544;2023-11-21T13:14:37;4.43;;;2.30;;
7529;SDS011;3806;52.270;10.544;2023-11-21T13:17:05;4.38;;;2.33;;
7529;SDS011;3806;52.270;10.544;2023-11-21T13:19:30;3.30;;;1.90;;
7529;SDS011;3806;52.270;10.544;2023-11-21T13:21:56;4.35;;;2.20;;
7529;SDS011;3806;52.270;10.544;2023-11-21T13:24:23;3.28;;;1.70;;
7529;SDS011;3806;52.270;10.544;2023-11-21T13:26:51;5.13;;;2.30;;
7529;SDS011;3806;52.270;10.544;2023-11-21T13:29:16;3.65;;;2.05;;
7529;SDS011;3806;52.270;10.544;2023-11-21T13:31:42;3.50;;;2.30;;
7529;SDS011;3806;52.270;10.544;2023-11-21T13:34:08;3.55;;;2.13;;
7529;SDS011;3806;52.270;10.544;2023-11-21T13:36:33;4.97;;;2.70;;
7529;SDS011;3806;52.270;10.544;2023-11-21T13:39:00;2.75;;;2.08;;
7529;SDS011;3806;52.270;10.544;2023-11-21T13:41:32;3.47;;;2.40;;
7529;SDS011;3806;52.270;10.544;2023-11-21T13:43:58;3.17;;;2.13;;
7529;SDS011;3806;52.270;10.544;2023-11-21T13:46:39;3.03;;;2.05;;
7529;SDS011;3806;52.270;10.544;2023-11-21T13:49:05;2.78;;;2.40;;
7529;SDS011;3806;52.270;10.544;2023-11-21T13:51:34;4.38;;;2.28;;
7529;SDS011;3806;52.270;10.544;2023-11-21T13:56:36;4.53;;;2.23;;
7529;SDS011;3806;52.270;10.544;2023-11-21T13:59:02;3.85;;;2.20;;
7529;SDS011;3806;52.270;10.544;2023-11-21T14:02:00;3.25;;;2.13;;
7529;SDS011;3806;52.270;10.544;2023-11-21T14:04:37;3.28;;;2.25;;
7529;SDS011;3806;52.270;10.544;2023-11-21T14:07:19;3.97;;;2.28;;
7529;SDS011;3806;52.270;10.544;2023-11-21T14:09:56;6.95;;;2.38;;
7529;SDS011;3806;52.270;10.544;2023-11-21T14:12:23;4.78;;;2.85;;
7529;SDS011;3806;52.270;10.544;2023-11-21T14:14:49;5.28;;;2.10;;
7529;SDS011;3806;52.270;10.544;2023-11-21T14:17:14;5.63;;;2.50;;
7529;SDS011;3806;52.270;10.544;2023-11-21T14:19:40;3.47;;;2.20;;
7529;SDS011;3806;52.270;10.544;2023-11-21T14:22:08;3.40;;;2.13;;
7529;SDS011;3806;52.270;10.544;2023-11-21T14:24:35;2.65;;;1.73;;
7529;SDS011;3806;52.270;10.544;2023-11-21T14:27:01;4.97;;;2.40;;
7529;SDS011;3806;52.270;10.544;2023-11-21T14:29:28;3.80;;;2.97;;
7529;SDS011;3806;52.270;10.544;2023-11-21T14:31:54;5.20;;;3.30;;
7529;SDS011;3806;52.270;10.544;2023-11-21T14:34:23;3.95;;;2.47;;
7529;SDS011;3806;52.270;10.544;2023-11-21T14:36:49;4.45;;;2.58;;
7529;SDS011;3806;52.270;10.544;2023-11-21T14:39:15;4.80;;;2.75;;
7529;SDS011;3806;52.270;10.544;2023-11-21T14:41:53;4.78;;;2.78;;
7529;SDS011;3806;52.270;10.544;2023-11-21T14:44:21;2.83;;;2.25;;
7529;SDS011;3806;52.270;10.544;2023-11-21T14:46:51;4.75;;;2.15;;
7529;SDS011;3806;52.270;10.544;2023-11-21T14:49:18;3.22;;;1.95;;
7529;SDS011;3806;52.270;10.544;2023-11-21T14:51:48;3.15;;;1.98;;
7529;SDS011;3806;52.270;10.544;2023-11-21T14:54:38;5.00;;;2.22;;
7529;SDS011;3806;52.270;10.544;2023-11-21T14:57:11;4.72;;;2.20;;
7529;SDS011;3806;52.270;10.544;2023-11-21T14:59:47;5.28;;;2.40;;
7529;SDS011;3806;52.270;10.544;2023-11-21T15:02:17;4.28;;;2.33;;
7529;SDS011;3806;52.270;10.544;2023-11-21T15:04:47;7.28;;;2.50;;
7529;SDS011;3806;52.270;10.544;2023-11-21T15:07:13;3.70;;;2.50;;
7529;SDS011;3806;52.270;10.544;2023-11-21T15:09:39;5.10;;;2.85;;
7529;SDS011;3806;52.270;10.544;2023-11-21T15:12:09;3.08;;;2.20;;
7529;SDS011;3806;52.270;10.544;2023-11-21T15:14:37;3.90;;;2.63;;